TimeCDT,TemperatureF,Dew PointF,Humidity,Sea Level PressureIn,VisibilityMPH,Wind Direction,Wind SpeedMPH,Gust SpeedMPH,PrecipitationIn,Events,Conditions,WindDirDegrees,DateUTC
12:15 AM,66.4,64.4,93,29.64,10.0,SE,3.5,-,N/A,,Clear,130,2013-05-28 05:15:00
12:35 AM,66.2,64.4,94,29.63,10.0,Calm,Calm,-,N/A,,Clear,0,2013-05-28 05:35:00
12:55 AM,66.0,64.4,94,29.67,10.0,Calm,Calm,-,N/A,,Clear,0,2013-05-28 05:55:00
1:15 AM,65.3,64.0,96,29.68,7.0,Calm,Calm,-,N/A,,Clear,0,2013-05-28 06:15:00
1:35 AM,65.1,64.2,97,29.67,7.0,Calm,Calm,-,N/A,Thunderstorm,Thunderstorm,0,2013-05-28 06:35:00
1:55 AM,64.9,63.9,96,29.67,10.0,Calm,Calm,-,N/A,,Clear,0,2013-05-28 06:55:00
2:15 AM,65.1,63.9,96,29.67,10.0,Calm,Calm,-,N/A,Thunderstorm,Clear,0,2013-05-28 07:15:00
2:35 AM,64.4,63.3,96,29.67,5.0,Calm,Calm,-,N/A,,Scattered Clouds,0,2013-05-28 07:35:00
2:55 AM,64.0,63.1,97,29.67,5.0,Calm,Calm,-,N/A,,Mostly Cloudy,0,2013-05-28 07:55:00
3:15 AM,63.9,63.1,97,29.66,3.0,Calm,Calm,-,N/A,,Scattered Clouds,0,2013-05-28 08:15:00
3:35 AM,63.3,62.8,98,29.66,0.5,Calm,Calm,-,N/A,Fog,Fog,0,2013-05-28 08:35:00
3:55 AM,63.0,62.4,98,29.68,1.2,NW,5.8,-,N/A,,Mist,310,2013-05-28 08:55:00
4:15 AM,63.1,62.6,98,29.70,7.0,NW,6.9,-,N/A,,Clear,310,2013-05-28 09:15:00
4:35 AM,63.7,63.1,98,29.70,10.0,Calm,Calm,-,N/A,,Mostly Cloudy,0,2013-05-28 09:35:00
4:55 AM,63.5,62.8,97,29.69,10.0,Calm,Calm,-,N/A,,Scattered Clouds,0,2013-05-28 09:55:00
5:15 AM,63.5,62.8,97,29.70,7.0,NW,3.5,-,N/A,,Mostly Cloudy,320,2013-05-28 10:15:00
5:35 AM,63.5,62.8,97,29.71,7.0,Calm,Calm,-,N/A,,Overcast,0,2013-05-28 10:35:00
5:55 AM,63.5,62.6,97,29.71,5.0,Calm,Calm,-,N/A,,Overcast,0,2013-05-28 10:55:00
6:15 AM,63.1,62.6,98,29.69,4.0,Calm,Calm,-,N/A,,Overcast,0,2013-05-28 11:15:00
6:35 AM,63.5,62.6,97,29.70,10.0,NNW,4.6,-,N/A,,Overcast,330,2013-05-28 11:35:00
6:55 AM,63.7,62.2,95,29.70,10.0,NW,8.1,-,N/A,,Overcast,310,2013-05-28 11:55:00
7:15 AM,62.8,61.0,94,29.69,7.0,Calm,Calm,-,N/A,,Overcast,0,2013-05-28 12:15:00
7:35 AM,63.5,61.5,93,29.70,7.0,Calm,Calm,-,N/A,,Overcast,0,2013-05-28 12:35:00
7:55 AM,64.0,61.3,91,29.70,7.0,Calm,Calm,-,N/A,,Overcast,0,2013-05-28 12:55:00
8:15 AM,65.1,62.2,90,29.70,10.0,SE,3.5,-,N/A,,Overcast,130,2013-05-28 13:15:00
8:35 AM,65.3,62.4,90,29.69,10.0,Calm,Calm,-,N/A,,Overcast,0,2013-05-28 13:35:00
8:55 AM,66.6,63.3,89,29.69,10.0,SE,4.6,-,N/A,,Overcast,140,2013-05-28 13:55:00
9:15 AM,67.8,64.0,88,29.67,10.0,Calm,Calm,-,N/A,,Scattered Clouds,0,2013-05-28 14:15:00
9:35 AM,68.7,62.8,81,29.67,10.0,Calm,Calm,-,N/A,,Clear,0,2013-05-28 14:35:00
9:55 AM,69.4,62.6,79,29.67,10.0,Calm,Calm,-,N/A,,Clear,0,2013-05-28 14:55:00
10:15 AM,70.0,63.1,79,29.68,10.0,Calm,Calm,-,N/A,,Clear,0,2013-05-28 15:15:00
10:35 AM,71.2,63.7,77,29.69,10.0,South,4.6,-,N/A,,Scattered Clouds,170,2013-05-28 15:35:00
10:55 AM,72.0,64.0,76,29.70,10.0,SSE,3.5,-,N/A,,Scattered Clouds,150,2013-05-28 15:55:00
11:15 AM,72.7,64.6,76,29.71,10.0,Calm,Calm,-,N/A,,Mostly Cloudy,0,2013-05-28 16:15:00
11:35 AM,72.7,64.4,75,29.71,10.0,SW,3.5,-,N/A,,Overcast,220,2013-05-28 16:35:00
11:55 AM,74.3,64.8,72,29.71,10.0,SSE,3.5,-,N/A,,Mostly Cloudy,150,2013-05-28 16:55:00
12:15 PM,74.3,63.9,70,29.71,10.0,Calm,Calm,-,N/A,,Scattered Clouds,0,2013-05-28 17:15:00
12:35 PM,75.4,64.2,68,29.71,10.0,Calm,Calm,-,N/A,,Scattered Clouds,0,2013-05-28 17:35:00
12:55 PM,75.9,63.1,64,29.70,10.0,NNW,4.6,-,N/A,,Scattered Clouds,330,2013-05-28 17:55:00
1:15 PM,76.6,62.8,62,29.71,10.0,Calm,Calm,-,N/A,,Scattered Clouds,0,2013-05-28 18:15:00
1:35 PM,77.9,63.1,60,29.70,10.0,Calm,Calm,-,N/A,,Mostly Cloudy,0,2013-05-28 18:35:00
1:55 PM,77.7,61.9,58,29.71,10.0,West,3.5,-,N/A,,Scattered Clouds,270,2013-05-28 18:55:00
2:15 PM,77.9,63.9,62,29.71,10.0,SE,8.1,-,N/A,,Scattered Clouds,130,2013-05-28 19:15:00
2:35 PM,78.1,65.5,65,29.72,10.0,SE,5.8,-,N/A,,Scattered Clouds,140,2013-05-28 19:35:00
2:55 PM,77.9,65.7,66,29.73,10.0,SE,9.2,-,N/A,,Mostly Cloudy,140,2013-05-28 19:55:00
3:15 PM,78.1,65.1,64,29.73,10.0,Calm,Calm,-,N/A,,Mostly Cloudy,0,2013-05-28 20:15:00
3:35 PM,78.6,64.4,62,29.73,10.0,Calm,Calm,-,N/A,,Scattered Clouds,0,2013-05-28 20:35:00
3:55 PM,78.8,64.6,62,29.72,10.0,East,4.6,-,N/A,,Clear,100,2013-05-28 20:55:00
4:15 PM,79.2,64.2,60,29.72,10.0,NE,5.8,-,N/A,,Clear,40,2013-05-28 21:15:00
4:35 PM,80.2,63.7,57,29.71,10.0,NE,5.8,-,N/A,,Clear,50,2013-05-28 21:35:00
4:55 PM,80.2,62.8,55,29.68,10.0,NNE,6.9,-,N/A,,Clear,20,2013-05-28 21:55:00
5:15 PM,80.6,61.0,51,29.66,10.0,NE,4.6,-,N/A,,Clear,40,2013-05-28 22:15:00
5:35 PM,80.4,60.4,50,29.66,10.0,NE,8.1,-,N/A,,Clear,40,2013-05-28 22:35:00
5:55 PM,81.0,56.7,43,29.65,10.0,ENE,6.9,-,N/A,,Clear,70,2013-05-28 22:55:00
6:15 PM,81.5,53.4,38,29.66,10.0,East,5.8,-,N/A,,Clear,90,2013-05-28 23:15:00
6:35 PM,80.6,57.4,45,29.66,10.0,ENE,5.8,-,N/A,,Clear,70,2013-05-28 23:35:00
6:55 PM,80.2,61.5,53,29.65,10.0,Calm,Calm,-,N/A,,Clear,0,2013-05-28 23:55:00
7:15 PM,79.7,62.8,56,29.67,10.0,ESE,6.9,-,N/A,,Clear,110,2013-05-29 00:15:00
7:35 PM,79.2,63.5,59,29.65,10.0,ESE,6.9,-,N/A,,Clear,110,2013-05-29 00:35:00
7:55 PM,78.6,63.5,60,29.66,10.0,East,6.9,-,N/A,,Clear,100,2013-05-29 00:55:00
8:15 PM,78.1,62.6,59,29.67,10.0,ESE,6.9,-,N/A,,Clear,110,2013-05-29 01:15:00
8:35 PM,77.2,62.6,61,29.69,10.0,ESE,8.1,-,N/A,,Clear,120,2013-05-29 01:35:00
8:55 PM,76.5,62.6,62,29.69,10.0,ESE,9.2,-,N/A,,Clear,120,2013-05-29 01:55:00
9:15 PM,75.0,63.5,67,29.71,10.0,SE,9.2,-,N/A,,Scattered Clouds,140,2013-05-29 02:15:00
9:35 PM,74.5,65.1,72,29.71,10.0,SE,11.5,-,N/A,,Mostly Cloudy,140,2013-05-29 02:35:00
9:55 PM,73.2,64.2,73,29.70,10.0,SE,5.8,-,N/A,,Scattered Clouds,140,2013-05-29 02:55:00
10:15 PM,71.1,63.0,75,29.69,10.0,SE,4.6,-,N/A,,Clear,130,2013-05-29 03:15:00
10:35 PM,70.2,62.6,77,29.68,10.0,SE,5.8,-,N/A,,Clear,130,2013-05-29 03:35:00
10:55 PM,69.3,62.2,78,29.69,10.0,Calm,Calm,-,N/A,,Clear,0,2013-05-29 03:55:00
11:15 PM,69.3,62.6,79,29.69,10.0,Calm,Calm,-,N/A,,Clear,0,2013-05-29 04:15:00
11:35 PM,69.1,62.6,80,29.70,10.0,East,4.6,-,N/A,,Clear,100,2013-05-29 04:35:00
11:55 PM,69.4,61.7,76,29.68,10.0,East,3.5,-,N/A,,Clear,100,2013-05-29 04:55:00